sensor_id;sensor_type;location;lat;lon;timestamp;pressure;altitude;pressure_sealevel;temperature;humidity
66560;BME280;53413;49.878;8.142;2023-05-08T00:00:56;100302.63;;;15.47;100.00
66560;BME280;53413;49.878;8.142;2023-05-08T00:03:22;100302.53;;;15.49;100.00
66560;BME280;53413;49.878;8.142;2023-05-08T00:05:48;100293.81;;;15.47;100.00
66560;BME280;53413;49.878;8.142;2023-05-08T00:08:13;100304.47;;;15.45;100.00
66560;BME280;53413;49.878;8.142;2023-05-08T00:10:39;100302.78;;;15.44;100.00
66560;BME280;53413;49.878;8.142;2023-05-08T00:13:04;100304.72;;;15.41;100.00
66560;BME280;53413;49.878;8.142;2023-05-08T00:15:29;100293.50;;;15.37;100.00
66560;BME280;53413;49.878;8.142;2023-05-08T00:17:55;100296.28;;;15.34;100.00
66560;BME280;53413;49.878;8.142;2023-05-08T00:20:20;100294.69;;;15.31;100.00
66560;BME280;53413;49.878;8.142;2023-05-08T00:22:45;100297.47;;;15.28;100.00
66560;BME280;53413;49.878;8.142;2023-05-08T00:25:11;100295.75;;;15.27;100.00
66560;BME280;53413;49.878;8.142;2023-05-08T00:27:36;100309.75;;;15.29;100.00
66560;BME280;53413;49.878;8.142;2023-05-08T00:30:02;100304.47;;;15.29;100.00
66560;BME280;53413;49.878;8.142;2023-05-08T00:32:27;100301.03;;;15.27;100.00
66560;BME280;53413;49.878;8.142;2023-05-08T00:34:52;100307.09;;;15.29;100.00
66560;BME280;53413;49.878;8.142;2023-05-08T00:37:18;100316.72;;;15.30;100.00
66560;BME280;53413;49.878;8.142;2023-05-08T00:39:43;100307.16;;;15.28;100.00
66560;BME280;53413;49.878;8.142;2023-05-08T00:42:08;100307.25;;;15.26;100.00
66560;BME280;53413;49.878;8.142;2023-05-08T00:44:34;100308.13;;;15.27;100.00
66560;BME280;53413;49.878;8.142;2023-05-08T00:47:00;100313.47;;;15.25;100.00
66560;BME280;53413;49.878;8.142;2023-05-08T00:49:25;100308.19;;;15.25;100.00
66560;BME280;53413;49.878;8.142;2023-05-08T00:51:53;100303.69;;;15.27;100.00
66560;BME280;53413;49.878;8.142;2023-05-08T00:54:19;100311.44;;;15.30;100.00
66560;BME280;53413;49.878;8.142;2023-05-08T00:56:46;100304.47;;;15.29;100.00
66560;BME280;53413;49.878;8.142;2023-05-08T00:59:14;100315.94;;;15.28;100.00
66560;BME280;53413;49.878;8.142;2023-05-08T01:01:42;100306.31;;;15.27;100.00
66560;BME280;53413;49.878;8.142;2023-05-08T01:04:07;100316.03;;;15.27;100.00
66560;BME280;53413;49.878;8.142;2023-05-08T01:06:33;100316.09;;;15.25;100.00
66560;BME280;53413;49.878;8.142;2023-05-08T01:09:01;100310.81;;;15.25;100.00
66560;BME280;53413;49.878;8.142;2023-05-08T01:11:40;100312.63;;;15.24;100.00
66560;BME280;53413;49.878;8.142;2023-05-08T01:16:57;100307.41;;;15.23;100.00
66560;BME280;53413;49.878;8.142;2023-05-08T01:35:58;100315.00;;;14.96;100.00
66560;BME280;53413;49.878;8.142;2023-05-08T01:41:02;100303.91;;;14.89;100.00
66560;BME280;53413;49.878;8.142;2023-05-08T01:43:40;100308.63;;;14.82;100.00
66560;BME280;53413;49.878;8.142;2023-05-08T01:46:15;100316.00;;;14.75;100.00
66560;BME280;53413;49.878;8.142;2023-05-08T01:48:46;100312.97;;;14.66;100.00
66560;BME280;53413;49.878;8.142;2023-05-08T01:51:17;100325.53;;;14.60;100.00
66560;BME280;53413;49.878;8.142;2023-05-08T01:53:48;100323.91;;;14.58;100.00
66560;BME280;53413;49.878;8.142;2023-05-08T01:56:19;100324.91;;;14.55;100.00
66560;BME280;53413;49.878;8.142;2023-05-08T01:58:46;100319.69;;;14.54;100.00
66560;BME280;53413;49.878;8.142;2023-05-08T02:01:14;100332.06;;;14.53;100.00
66560;BME280;53413;49.878;8.142;2023-05-08T02:03:42;100324.19;;;14.52;100.00
66560;BME280;53413;49.878;8.142;2023-05-08T02:06:11;100321.66;;;14.50;100.00
66560;BME280;53413;49.878;8.142;2023-05-08T02:08:38;100329.66;;;14.49;100.00
66560;BME280;53413;49.878;8.142;2023-05-08T02:11:05;100324.66;;;14.42;100.00
66560;BME280;53413;49.878;8.142;2023-05-08T02:13:32;100323.03;;;14.40;100.00
66560;BME280;53413;49.878;8.142;2023-05-08T02:16:00;100329.53;;;14.32;100.00
66560;BME280;53413;49.878;8.142;2023-05-08T02:18:28;100335.00;;;14.28;100.00
66560;BME280;53413;49.878;8.142;2023-05-08T02:20:58;100341.44;;;14.22;100.00
66560;BME280;53413;49.878;8.142;2023-05-08T02:23:25;100336.53;;;14.14;100.00
66560;BME280;53413;49.878;8.142;2023-05-08T02:25:52;100342.13;;;14.08;100.00
66560;BME280;53413;49.878;8.142;2023-05-08T02:28:19;100336.97;;;14.05;100.00
66560;BME280;53413;49.878;8.142;2023-05-08T02:30:48;100345.81;;;14.04;100.00
66560;BME280;53413;49.878;8.142;2023-05-08T02:33:14;100344.03;;;14.05;100.00
66560;BME280;53413;49.878;8.142;2023-05-08T02:35:42;100350.09;;;14.07;100.00
66560;BME280;53413;49.878;8.142;2023-05-08T02:38:08;100349.22;;;14.06;100.00
66560;BME280;53413;49.878;8.142;2023-05-08T02:40:44;100350.09;;;14.07;100.00
66560;BME280;53413;49.878;8.142;2023-05-08T02:43:10;100347.47;;;14.07;100.00
66560;BME280;53413;49.878;8.142;2023-05-08T02:45:42;100351.06;;;14.04;100.00
66560;BME280;53413;49.878;8.142;2023-05-08T02:48:21;100355.56;;;14.02;100.00
66560;BME280;53413;49.878;8.142;2023-05-08T02:53:31;100351.53;;;13.95;100.00
66560;BME280;53413;49.878;8.142;2023-05-08T02:56:30;100350.88;;;13.90;100.00
66560;BME280;53413;49.878;8.142;2023-05-08T02:59:21;100351.97;;;13.85;100.00
66560;BME280;53413;49.878;8.142;2023-05-08T03:01:53;100355.66;;;13.81;100.00
66560;BME280;53413;49.878;8.142;2023-05-08T03:04:33;100347.88;;;13.78;100.00
66560;BME280;53413;49.878;8.142;2023-05-08T03:07:01;100345.25;;;13.78;100.00
66560;BME280;53413;49.878;8.142;2023-05-08T03:09:37;100342.63;;;13.78;100.00
66560;BME280;53413;49.878;8.142;2023-05-08T03:12:06;100340.06;;;13.77;100.00
66560;BME280;53413;49.878;8.142;2023-05-08T03:14:40;100347.13;;;13.76;100.00
66560;BME280;53413;49.878;8.142;2023-05-08T03:17:09;100345.41;;;13.75;100.00
66560;BME280;53413;49.878;8.142;2023-05-08T03:19:38;100339.22;;;13.76;100.00
66560;BME280;53413;49.878;8.142;2023-05-08T03:22:06;100349.53;;;13.81;100.00
66560;BME280;53413;49.878;8.142;2023-05-08T03:24:36;100346.81;;;13.82;100.00
66560;BME280;53413;49.878;8.142;2023-05-08T03:27:03;100350.25;;;13.84;100.00
66560;BME280;53413;49.878;8.142;2023-05-08T03:29:32;100349.47;;;13.82;100.00
66560;BME280;53413;49.878;8.142;2023-05-08T03:31:59;100353.09;;;13.80;100.00
66560;BME280;53413;49.878;8.142;2023-05-08T03:34:27;100359.34;;;13.77;100.00
66560;BME280;53413;49.878;8.142;2023-05-08T03:36:54;100359.34;;;13.77;100.00
66560;BME280;53413;49.878;8.142;2023-05-08T03:39:20;100359.34;;;13.77;100.00
66560;BME280;53413;49.878;8.142;2023-05-08T03:41:45;100355.78;;;13.78;100.00
66560;BME280;53413;49.878;8.142;2023-05-08T03:44:12;100353.94;;;13.80;100.00
66560;BME280;53413;49.878;8.142;2023-05-08T03:46:38;100358.28;;;13.81;100.00
66560;BME280;53413;49.878;8.142;2023-05-08T03:49:08;100353.00;;;13.81;100.00
66560;BME280;53413;49.878;8.142;2023-05-08T03:51:36;100358.22;;;13.83;100.00
66560;BME280;53413;49.878;8.142;2023-05-08T03:54:02;100353.81;;;13.83;100.00
66560;BME280;53413;49.878;8.142;2023-05-08T03:56:28;100356.66;;;13.79;100.00
66560;BME280;53413;49.878;8.142;2023-05-08T04:02:08;100356.91;;;13.73;100.00
66560;BME280;53413;49.878;8.142;2023-05-08T04:04:40;100361.22;;;13.75;100.00
66560;BME280;53413;49.878;8.142;2023-05-08T04:07:18;100361.22;;;13.75;100.00
66560;BME280;53413;49.878;8.142;2023-05-08T04:12:19;100360.34;;;13.75;100.00
66560;BME280;53413;49.878;8.142;2023-05-08T04:14:48;100365.69;;;13.73;100.00
66560;BME280;53413;49.878;8.142;2023-05-08T04:17:19;100361.34;;;13.72;100.00
66560;BME280;53413;49.878;8.142;2023-05-08T04:19:51;100353.53;;;13.70;100.00
66560;BME280;53413;49.878;8.142;2023-05-08T04:22:21;100356.22;;;13.69;100.00
66560;BME280;53413;49.878;8.142;2023-05-08T04:24:49;100367.66;;;13.68;100.00
66560;BME280;53413;49.878;8.142;2023-05-08T04:27:16;100369.47;;;13.67;100.00
66560;BME280;53413;49.878;8.142;2023-05-08T04:29:42;100364.25;;;13.66;100.00
66560;BME280;53413;49.878;8.142;2023-05-08T04:32:14;100368.59;;;13.67;100.00
66560;BME280;53413;49.878;8.142;2023-05-08T04:34:40;100367.81;;;13.65;100.00
66560;BME280;53413;49.878;8.142;2023-05-08T04:37:06;100365.19;;;13.65;100.00
66560;BME280;53413;49.878;8.142;2023-05-08T04:39:32;100372.31;;;13.63;100.00
66560;BME280;53413;49.878;8.142;2023-05-08T04:41:57;100366.25;;;13.61;100.00
66560;BME280;53413;49.878;8.142;2023-05-08T04:44:27;100370.84;;;13.55;100.00
66560;BME280;53413;49.878;8.142;2023-05-08T04:46:53;100371.97;;;13.50;100.00
66560;BME280;53413;49.878;8.142;2023-05-08T04:49:19;100371.41;;;13.43;100.00
66560;BME280;53413;49.878;8.142;2023-05-08T04:51:44;100373.25;;;13.41;100.00
66560;BME280;53413;49.878;8.142;2023-05-08T04:54:09;100380.38;;;13.37;100.00
66560;BME280;53413;49.878;8.142;2023-05-08T04:56:35;100383.78;;;13.41;100.00
66560;BME280;53413;49.878;8.142;2023-05-08T04:59:00;100380.22;;;13.42;100.00
66560;BME280;53413;49.878;8.142;2023-05-08T05:01:25;100382.94;;;13.41;100.00
66560;BME280;53413;49.878;8.142;2023-05-08T05:03:51;100390.00;;;13.38;100.00
66560;BME280;53413;49.878;8.142;2023-05-08T05:06:16;100390.00;;;13.40;100.00
66560;BME280;53413;49.878;8.142;2023-05-08T05:08:41;100390.88;;;13.39;100.00
66560;BME280;53413;49.878;8.142;2023-05-08T05:11:07;100403.16;;;13.40;100.00
66560;BME280;53413;49.878;8.142;2023-05-08T05:13:32;100400.44;;;13.42;100.00
66560;BME280;53413;49.878;8.142;2023-05-08T05:15:58;100409.13;;;13.44;100.00
66560;BME280;53413;49.878;8.142;2023-05-08T05:18:24;100407.41;;;13.43;100.00
66560;BME280;53413;49.878;8.142;2023-05-08T05:20:49;100415.94;;;13.48;100.00
66560;BME280;53413;49.878;8.142;2023-05-08T05:23:14;100423.81;;;13.49;100.00
66560;BME280;53413;49.878;8.142;2023-05-08T05:25:39;100422.00;;;13.50;100.00
66560;BME280;53413;49.878;8.142;2023-05-08T05:28:05;100421.41;;;13.43;100.00
66560;BME280;53413;49.878;8.142;2023-05-08T05:30:30;100432.03;;;13.42;100.00
66560;BME280;53413;49.878;8.142;2023-05-08T05:32:55;100424.97;;;13.42;100.00
66560;BME280;53413;49.878;8.142;2023-05-08T05:35:21;100433.75;;;13.43;100.00
66560;BME280;53413;49.878;8.142;2023-05-08T05:37:46;100425.03;;;13.41;100.00
66560;BME280;53413;49.878;8.142;2023-05-08T05:40:12;100433.75;;;13.43;100.00
66560;BME280;53413;49.878;8.142;2023-05-08T05:42:37;100438.13;;;13.42;100.00
66560;BME280;53413;49.878;8.142;2023-05-08T05:45:03;100441.69;;;13.41;100.00
66560;BME280;53413;49.878;8.142;2023-05-08T05:47:29;100441.56;;;13.44;100.00
66560;BME280;53413;49.878;8.142;2023-05-08T05:49:56;100442.16;;;13.51;100.00
66560;BME280;53413;49.878;8.142;2023-05-08T05:52:21;100437.16;;;13.45;100.00
66560;BME280;53413;49.878;8.142;2023-05-08T05:54:46;100435.38;;;13.45;100.00
66560;BME280;53413;49.878;8.142;2023-05-08T05:57:12;100447.69;;;13.45;100.00
66560;BME280;53413;49.878;8.142;2023-05-08T05:59:38;100444.16;;;13.46;100.00
66560;BME280;53413;49.878;8.142;2023-05-08T06:02:03;100447.53;;;13.48;100.00
66560;BME280;53413;49.878;8.142;2023-05-08T06:04:29;100454.72;;;13.44;100.00
66560;BME280;53413;49.878;8.142;2023-05-08T06:06:54;100444.31;;;13.41;100.00
66560;BME280;53413;49.878;8.142;2023-05-08T06:09:19;100453.81;;;13.45;100.00
66560;BME280;53413;49.878;8.142;2023-05-08T06:11:45;100457.16;;;13.49;100.00
66560;BME280;53413;49.878;8.142;2023-05-08T06:14:10;100448.41;;;13.48;100.00
66560;BME280;53413;49.878;8.142;2023-05-08T06:16:35;100456.44;;;13.45;100.00
66560;BME280;53413;49.878;8.142;2023-05-08T06:19:01;100452.22;;;13.41;100.00
66560;BME280;53413;49.878;8.142;2023-05-08T06:21:26;100449.03;;;13.33;100.00
66560;BME280;53413;49.878;8.142;2023-05-08T06:23:52;100451.75;;;13.31;100.00
66560;BME280;53413;49.878;8.142;2023-05-08T06:26:18;100466.66;;;13.31;100.00
66560;BME280;53413;49.878;8.142;2023-05-08T06:28:43;100464.03;;;13.31;100.00
66560;BME280;53413;49.878;8.142;2023-05-08T06:31:08;100465.75;;;13.32;100.00
66560;BME280;53413;49.878;8.142;2023-05-08T06:33:34;100468.88;;;13.42;100.00
66560;BME280;53413;49.878;8.142;2023-05-08T06:35:59;100463.16;;;13.52;100.00
66560;BME280;53413;49.878;8.142;2023-05-08T06:38:25;100466.19;;;13.64;100.00
66560;BME280;53413;49.878;8.142;2023-05-08T06:40:50;100458.91;;;13.69;100.00
66560;BME280;53413;49.878;8.142;2023-05-08T06:43:15;100453.19;;;13.80;100.00
66560;BME280;53413;49.878;8.142;2023-05-08T06:45:42;100456.41;;;13.87;100.00
66560;BME280;53413;49.878;8.142;2023-05-08T06:48:08;100455.31;;;13.91;100.00
66560;BME280;53413;49.878;8.142;2023-05-08T06:50:36;100451.94;;;13.89;100.00
66560;BME280;53413;49.878;8.142;2023-05-08T06:53:01;100452.63;;;13.92;100.00
66560;BME280;53413;49.878;8.142;2023-05-08T06:55:27;100455.78;;;14.00;100.00
66560;BME280;53413;49.878;8.142;2023-05-08T06:57:52;100454.94;;;14.00;100.00
66560;BME280;53413;49.878;8.142;2023-05-08T07:00:17;100457.41;;;14.03;100.00
66560;BME280;53413;49.878;8.142;2023-05-08T07:02:43;100458.63;;;14.15;100.00
66560;BME280;53413;49.878;8.142;2023-05-08T07:05:08;100457.13;;;14.09;100.00
66560;BME280;53413;49.878;8.142;2023-05-08T07:07:34;100460.78;;;14.07;100.00
66560;BME280;53413;49.878;8.142;2023-05-08T07:09:59;100458.78;;;14.12;100.00
66560;BME280;53413;49.878;8.142;2023-05-08T07:12:24;100464.75;;;14.15;100.00
66560;BME280;53413;49.878;8.142;2023-05-08T07:14:50;100455.56;;;14.05;100.00
66560;BME280;53413;49.878;8.142;2023-05-08T07:17:15;100459.13;;;14.04;100.00
66560;BME280;53413;49.878;8.142;2023-05-08T07:19:40;100455.28;;;14.11;100.00
66560;BME280;53413;49.878;8.142;2023-05-08T07:22:06;100459.13;;;14.23;100.00
66560;BME280;53413;49.878;8.142;2023-05-08T07:24:31;100456.28;;;14.28;100.00
66560;BME280;53413;49.878;8.142;2023-05-08T07:26:57;100465.91;;;14.29;100.00
66560;BME280;53413;49.878;8.142;2023-05-08T07:29:24;100459.06;;;14.25;100.00
66560;BME280;53413;49.878;8.142;2023-05-08T07:31:50;100463.22;;;14.30;100.00
66560;BME280;53413;49.878;8.142;2023-05-08T07:34:16;100459.81;;;14.46;100.00
66560;BME280;53413;49.878;8.142;2023-05-08T07:36:41;100468.09;;;14.38;100.00
66560;BME280;53413;49.878;8.142;2023-05-08T07:39:07;100462.69;;;14.41;100.00
66560;BME280;53413;49.878;8.142;2023-05-08T07:41:32;100464.03;;;14.50;100.00
66560;BME280;53413;49.878;8.142;2023-05-08T07:43:57;100468.88;;;14.59;100.00
66560;BME280;53413;49.878;8.142;2023-05-08T07:46:23;100468.88;;;14.59;100.00
66560;BME280;53413;49.878;8.142;2023-05-08T07:48:48;100475.00;;;14.60;100.00
66560;BME280;53413;49.878;8.142;2023-05-08T07:51:14;100473.81;;;14.67;100.00
66560;BME280;53413;49.878;8.142;2023-05-08T07:53:39;100466.88;;;14.84;100.00
66560;BME280;53413;49.878;8.142;2023-05-08T07:56:05;100460.41;;;15.08;100.00
66560;BME280;53413;49.878;8.142;2023-05-08T07:58:30;100471.25;;;15.20;100.00
66560;BME280;53413;49.878;8.142;2023-05-08T08:00:56;100462.72;;;15.32;100.00
66560;BME280;53413;49.878;8.142;2023-05-08T08:03:21;100468.38;;;15.42;100.00
66560;BME280;53413;49.878;8.142;2023-05-08T08:05:46;100467.84;;;15.53;100.00
66560;BME280;53413;49.878;8.142;2023-05-08T08:08:12;100472.34;;;15.51;100.00
66560;BME280;53413;49.878;8.142;2023-05-08T08:10:37;100464.16;;;15.55;100.00
66560;BME280;53413;49.878;8.142;2023-05-08T08:13:03;100466.81;;;15.55;100.00
66560;BME280;53413;49.878;8.142;2023-05-08T08:15:29;100464.94;;;15.58;100.00
66560;BME280;53413;49.878;8.142;2023-05-08T08:17:55;100466.56;;;15.60;100.00
66560;BME280;53413;49.878;8.142;2023-05-08T08:20:20;100460.97;;;15.66;100.00
66560;BME280;53413;49.878;8.142;2023-05-08T08:22:46;100467.22;;;15.81;100.00
66560;BME280;53413;49.878;8.142;2023-05-08T08:25:11;100477.34;;;15.91;100.00
66560;BME280;53413;49.878;8.142;2023-05-08T08:27:37;100471.06;;;15.93;100.00
66560;BME280;53413;49.878;8.142;2023-05-08T08:30:03;100466.78;;;15.91;100.00
66560;BME280;53413;49.878;8.142;2023-05-08T08:32:28;100477.03;;;15.79;100.00
66560;BME280;53413;49.878;8.142;2023-05-08T08:34:53;100476.84;;;15.66;100.00
66560;BME280;53413;49.878;8.142;2023-05-08T08:37:19;100480.47;;;15.64;100.00
66560;BME280;53413;49.878;8.142;2023-05-08T08:39:44;100482.03;;;15.68;100.00
66560;BME280;53413;49.878;8.142;2023-05-08T08:42:09;100484.66;;;15.68;100.00
66560;BME280;53413;49.878;8.142;2023-05-08T08:44:36;100474.44;;;15.62;100.00
66560;BME280;53413;49.878;8.142;2023-05-08T08:47:03;100481.09;;;15.69;100.00
66560;BME280;53413;49.878;8.142;2023-05-08T08:49:41;100479.31;;;15.87;100.00
66560;BME280;53413;49.878;8.142;2023-05-08T08:52:30;100481.66;;;16.09;100.00
66560;BME280;53413;49.878;8.142;2023-05-08T08:54:59;100490.28;;;16.29;100.00
66560;BME280;53413;49.878;8.142;2023-05-08T08:57:27;100482.53;;;16.42;100.00
66560;BME280;53413;49.878;8.142;2023-05-08T08:59:58;100478.88;;;16.44;100.00
66560;BME280;53413;49.878;8.142;2023-05-08T09:02:28;100481.00;;;16.38;100.00
66560;BME280;53413;49.878;8.142;2023-05-08T09:04:55;100486.38;;;16.36;100.00
66560;BME280;53413;49.878;8.142;2023-05-08T09:07:21;100486.09;;;16.25;100.00
66560;BME280;53413;49.878;8.142;2023-05-08T09:09:47;100488.06;;;16.21;100.00
66560;BME280;53413;49.878;8.142;2023-05-08T09:12:13;100498.31;;;16.27;100.00
66560;BME280;53413;49.878;8.142;2023-05-08T09:14:38;100495.50;;;16.30;100.00
66560;BME280;53413;49.878;8.142;2023-05-08T09:17:04;100496.50;;;16.28;100.00
66560;BME280;53413;49.878;8.142;2023-05-08T09:19:29;100503.09;;;16.21;100.00
66560;BME280;53413;49.878;8.142;2023-05-08T09:21:58;100500.75;;;16.14;100.00
66560;BME280;53413;49.878;8.142;2023-05-08T09:24:24;100495.81;;;16.08;100.00
66560;BME280;53413;49.878;8.142;2023-05-08T09:26:52;100499.91;;;16.14;100.00
66560;BME280;53413;49.878;8.142;2023-05-08T09:29:19;100497.44;;;16.27;100.00
66560;BME280;53413;49.878;8.142;2023-05-08T09:31:50;100507.34;;;16.23;100.00
66560;BME280;53413;49.878;8.142;2023-05-08T09:34:28;100503.94;;;16.21;100.00
66560;BME280;53413;49.878;8.142;2023-05-08T09:36:54;100506.13;;;16.13;100.00
66560;BME280;53413;49.878;8.142;2023-05-08T09:39:24;100515.66;;;15.99;100.00
66560;BME280;53413;49.878;8.142;2023-05-08T09:42:01;100513.75;;;15.85;100.00
66560;BME280;53413;49.878;8.142;2023-05-08T09:44:26;100517.94;;;15.72;100.00
66560;BME280;53413;49.878;8.142;2023-05-08T09:47:09;100518.25;;;15.48;100.00
66560;BME280;53413;49.878;8.142;2023-05-08T09:49:35;100511.66;;;15.39;100.00
66560;BME280;53413;49.878;8.142;2023-05-08T09:52:00;100515.44;;;15.34;100.00
66560;BME280;53413;49.878;8.142;2023-05-08T09:54:26;100525.53;;;15.26;100.00
66560;BME280;53413;49.878;8.142;2023-05-08T09:56:52;100514.97;;;15.26;100.00
66560;BME280;53413;49.878;8.142;2023-05-08T09:59:27;100518.19;;;15.32;100.00
66560;BME280;53413;49.878;8.142;2023-05-08T10:01:56;100516.09;;;15.39;100.00
66560;BME280;53413;49.878;8.142;2023-05-08T10:04:34;100518.41;;;15.45;100.00
66560;BME280;53413;49.878;8.142;2023-05-08T10:07:01;100518.16;;;15.50;100.00
66560;BME280;53413;49.878;8.142;2023-05-08T10:09:26;100529.19;;;15.58;100.00
66560;BME280;53413;49.878;8.142;2023-05-08T10:11:53;100526.09;;;15.67;100.00
66560;BME280;53413;49.878;8.142;2023-05-08T10:14:23;100513.97;;;15.81;100.00
66560;BME280;53413;49.878;8.142;2023-05-08T10:16:50;100519.56;;;15.92;100.00
66560;BME280;53413;49.878;8.142;2023-05-08T10:19:23;100513.19;;;16.12;100.00
66560;BME280;53413;49.878;8.142;2023-05-08T10:21:51;100509.84;;;16.26;100.00
66560;BME280;53413;49.878;8.142;2023-05-08T10:24:27;100513.16;;;16.46;100.00
66560;BME280;53413;49.878;8.142;2023-05-08T10:27:19;100510.09;;;16.70;100.00
66560;BME280;53413;49.878;8.142;2023-05-08T10:32:09;100509.00;;;17.06;100.00
66560;BME280;53413;49.878;8.142;2023-05-08T10:34:39;100510.38;;;17.28;100.00
66560;BME280;53413;49.878;8.142;2023-05-08T10:37:09;100511.19;;;17.44;100.00
66560;BME280;53413;49.878;8.142;2023-05-08T10:39:35;100509.44;;;17.59;100.00
66560;BME280;53413;49.878;8.142;2023-05-08T10:42:01;100504.63;;;17.80;100.00
66560;BME280;53413;49.878;8.142;2023-05-08T10:44:27;100501.00;;;17.97;100.00
66560;BME280;53413;49.878;8.142;2023-05-08T10:50:21;100498.88;;;18.17;100.00
66560;BME280;53413;49.878;8.142;2023-05-08T10:55:36;100498.88;;;18.46;100.00
66560;BME280;53413;49.878;8.142;2023-05-08T10:58:10;100500.44;;;18.63;100.00
66560;BME280;53413;49.878;8.142;2023-05-08T11:03:16;100501.63;;;18.86;100.00
66560;BME280;53413;49.878;8.142;2023-05-08T11:05:46;100495.63;;;18.97;100.00
66560;BME280;53413;49.878;8.142;2023-05-08T11:08:21;100502.00;;;19.07;100.00
66560;BME280;53413;49.878;8.142;2023-05-08T11:11:03;100496.44;;;19.12;100.00
66560;BME280;53413;49.878;8.142;2023-05-08T11:13:36;100497.00;;;19.03;100.00
66560;BME280;53413;49.878;8.142;2023-05-08T11:16:03;100499.91;;;18.85;100.00
66560;BME280;53413;49.878;8.142;2023-05-08T11:18:30;100490.31;;;18.83;100.00
66560;BME280;53413;49.878;8.142;2023-05-08T11:21:01;100495.84;;;18.94;100.00
66560;BME280;53413;49.878;8.142;2023-05-08T11:23:36;100491.69;;;19.30;100.00
66560;BME280;53413;49.878;8.142;2023-05-08T11:26:12;100488.63;;;19.62;100.00
66560;BME280;53413;49.878;8.142;2023-05-08T11:28:40;100484.91;;;20.04;100.00
66560;BME280;53413;49.878;8.142;2023-05-08T11:31:19;100474.63;;;20.36;100.00
66560;BME280;53413;49.878;8.142;2023-05-08T11:33:45;100479.88;;;20.62;100.00
66560;BME280;53413;49.878;8.142;2023-05-08T11:36:15;100475.88;;;21.05;100.00
66560;BME280;53413;49.878;8.142;2023-05-08T11:38:41;100477.84;;;21.14;96.15
66560;BME280;53413;49.878;8.142;2023-05-08T11:41:08;100482.88;;;20.95;98.70
66560;BME280;53413;49.878;8.142;2023-05-08T11:48:29;100485.44;;;19.83;100.00
66560;BME280;53413;49.878;8.142;2023-05-08T11:50:55;100480.97;;;19.71;100.00
66560;BME280;53413;49.878;8.142;2023-05-08T11:53:21;100488.44;;;19.65;100.00
66560;BME280;53413;49.878;8.142;2023-05-08T11:55:51;100486.59;;;19.66;100.00
66560;BME280;53413;49.878;8.142;2023-05-08T11:58:16;100486.94;;;19.61;100.00
66560;BME280;53413;49.878;8.142;2023-05-08T12:00:45;100484.28;;;19.48;100.00
66560;BME280;53413;49.878;8.142;2023-05-08T12:03:12;100481.69;;;19.34;100.00
66560;BME280;53413;49.878;8.142;2023-05-08T12:05:38;100490.06;;;19.28;100.00
66560;BME280;53413;49.878;8.142;2023-05-08T12:08:11;100478.72;;;19.51;100.00
66560;BME280;53413;49.878;8.142;2023-05-08T12:10:49;100480.88;;;19.98;100.00
66560;BME280;53413;49.878;8.142;2023-05-08T12:13:19;100478.38;;;20.34;100.00
66560;BME280;53413;49.878;8.142;2023-05-08T12:15:46;100486.25;;;20.35;100.00
66560;BME280;53413;49.878;8.142;2023-05-08T12:18:12;100476.78;;;20.31;100.00
66560;BME280;53413;49.878;8.142;2023-05-08T12:20:38;100473.88;;;20.47;100.00
66560;BME280;53413;49.878;8.142;2023-05-08T12:23:04;100478.59;;;20.30;100.00
66560;BME280;53413;49.878;8.142;2023-05-08T12:25:29;100483.50;;;20.24;99.72
66560;BME280;53413;49.878;8.142;2023-05-08T12:27:55;100478.31;;;20.09;100.00
66560;BME280;53413;49.878;8.142;2023-05-08T12:30:21;100482.69;;;19.97;100.00
66560;BME280;53413;49.878;8.142;2023-05-08T12:32:47;100485.69;;;19.93;100.00
66560;BME280;53413;49.878;8.142;2023-05-08T12:35:13;100477.91;;;19.77;100.00
66560;BME280;53413;49.878;8.142;2023-05-08T12:37:40;100478.94;;;19.61;100.00
66560;BME280;53413;49.878;8.142;2023-05-08T12:40:06;100489.34;;;19.38;100.00
66560;BME280;53413;49.878;8.142;2023-05-08T12:42:48;100488.16;;;19.17;100.00
66560;BME280;53413;49.878;8.142;2023-05-08T12:45:21;100482.38;;;19.10;100.00
66560;BME280;53413;49.878;8.142;2023-05-08T12:47:47;100484.69;;;19.02;100.00
66560;BME280;53413;49.878;8.142;2023-05-08T12:50:16;100486.19;;;19.06;100.00
66560;BME280;53413;49.878;8.142;2023-05-08T12:52:42;100490.44;;;19.08;100.00
66560;BME280;53413;49.878;8.142;2023-05-08T12:55:27;100484.19;;;19.10;100.00
66560;BME280;53413;49.878;8.142;2023-05-08T12:58:06;100491.63;;;19.04;100.00
66560;BME280;53413;49.878;8.142;2023-05-08T13:00:35;100478.41;;;19.03;100.00
66560;BME280;53413;49.878;8.142;2023-05-08T13:03:04;100487.69;;;19.10;100.00
66560;BME280;53413;49.878;8.142;2023-05-08T13:05:29;100479.47;;;19.41;100.00
66560;BME280;53413;49.878;8.142;2023-05-08T13:08:02;100475.66;;;19.71;100.00
66560;BME280;53413;49.878;8.142;2023-05-08T13:13:14;100464.59;;;20.03;100.00
66560;BME280;53413;49.878;8.142;2023-05-08T13:15:40;100464.78;;;20.12;100.00
66560;BME280;53413;49.878;8.142;2023-05-08T13:18:05;100467.16;;;20.04;100.00
66560;BME280;53413;49.878;8.142;2023-05-08T13:20:33;100467.25;;;20.15;100.00
66560;BME280;53413;49.878;8.142;2023-05-08T13:22:58;100463.91;;;20.38;100.00
66560;BME280;53413;49.878;8.142;2023-05-08T13:25:23;100458.31;;;20.78;100.00
66560;BME280;53413;49.878;8.142;2023-05-08T13:27:49;100460.84;;;21.04;99.15
66560;BME280;53413;49.878;8.142;2023-05-08T13:30:15;100466.97;;;21.17;97.92
66560;BME280;53413;49.878;8.142;2023-05-08T13:32:40;100465.03;;;21.19;96.72